Time;durP1;ratioP1;P1;durP2;ratioP2;P2;SDS_P1;SDS_P2;PMS_P1;PMS_P2;Temp;Humidity;BMP_temperature;BMP_pressure;BME280_temperature;BME280_humidity;BME280_pressure;Samples;Min_cycle;Max_cycle;Signal;HPM_P1;HPM_P2
2021/09/17 00:01:35;;;;;;;36.83;18.15;;;;;;;;;;5047619;28;20033;-55
2021/09/17 00:04:06;;;;;;;37.78;17.75;;;;;;;;;;5048692;28;20040;-57
2021/09/17 00:06:32;;;;;;;39.03;20.25;;;;;;;;;;5047450;28;20040;-56
2021/09/17 00:08:58;;;;;;;40.03;18.65;;;;;;;;;;5060856;28;20113;-56
2021/09/17 00:11:26;;;;;;;39.05;18.35;;;;;;;;;;5039587;28;20060;-56
2021/09/17 00:13:53;;;;;;;37.38;19.05;;;;;;;;;;5061510;28;20036;-55
2021/09/17 00:16:19;;;;;;;38.38;18.92;;;;;;;;;;5046574;28;20029;-56
2021/09/17 00:18:46;;;;;;;41.45;18.88;;;;;;;;;;5072192;28;20048;-56
2021/09/17 00:21:12;;;;;;;35.08;17.90;;;;;;;;;;5064497;28;20040;-55
2021/09/17 00:23:39;;;;;;;39.83;18.77;;;;;;;;;;5051510;28;20114;-55
2021/09/17 00:26:06;;;;;;;38.67;19.30;;;;;;;;;;5044871;28;20114;-56
2021/09/17 00:28:34;;;;;;;40.40;18.60;;;;;;;;;;5045552;28;20041;-56
2021/09/17 00:31:00;;;;;;;40.80;19.75;;;;;;;;;;5058787;28;20037;-55
2021/09/17 00:33:29;;;;;;;40.45;19.42;;;;;;;;;;5085794;28;20040;-55
2021/09/17 00:35:56;;;;;;;41.72;18.92;;;;;;;;;;5049284;28;20044;-57
2021/09/17 00:38:22;;;;;;;35.28;18.42;;;;;;;;;;5049147;28;20040;-57
2021/09/17 00:40:49;;;;;;;38.85;18.35;;;;;;;;;;5070154;28;20032;-60
2021/09/17 00:43:16;;;;;;;41.78;19.23;;;;;;;;;;5048843;28;20029;-55
2021/09/17 00:45:46;;;;;;;38.85;19.02;;;;;;;;;;5051431;28;20052;-56
2021/09/17 00:48:13;;;;;;;42.92;19.35;;;;;;;;;;5065070;28;20048;-55
2021/09/17 00:50:39;;;;;;;39.08;19.27;;;;;;;;;;5075516;28;20036;-56
2021/09/17 00:53:06;;;;;;;38.58;19.42;;;;;;;;;;5064500;28;20073;-55
2021/09/17 00:55:34;;;;;;;44.28;19.60;;;;;;;;;;5043980;28;20056;-55
2021/09/17 00:58:00;;;;;;;37.38;18.00;;;;;;;;;;5047035;28;20115;-55
2021/09/17 01:00:27;;;;;;;38.70;19.35;;;;;;;;;;5042650;28;20057;-54
2021/09/17 01:02:55;;;;;;;39.25;18.92;;;;;;;;;;5046808;28;20074;-56
2021/09/17 01:05:21;;;;;;;37.63;18.53;;;;;;;;;;5046018;28;20053;-55
2021/09/17 01:07:49;;;;;;;44.15;19.80;;;;;;;;;;5057167;28;20049;-53
2021/09/17 01:10:18;;;;;;;39.88;19.40;;;;;;;;;;5064016;28;20048;-53
2021/09/17 01:12:47;;;;;;;39.67;19.48;;;;;;;;;;5044546;28;20122;-55
2021/09/17 01:15:14;;;;;;;36.70;18.52;;;;;;;;;;5045929;28;20051;-54
2021/09/17 01:17:44;;;;;;;42.20;18.98;;;;;;;;;;5044599;28;20040;-55
2021/09/17 01:20:14;;;;;;;38.40;18.88;;;;;;;;;;5061914;28;20041;-54
2021/09/17 01:22:41;;;;;;;38.75;19.10;;;;;;;;;;5060792;28;20029;-55
2021/09/17 01:25:10;;;;;;;46.15;19.52;;;;;;;;;;5044896;28;20047;-57
2021/09/17 01:27:37;;;;;;;38.47;18.13;;;;;;;;;;5038197;28;20048;-53
2021/09/17 01:30:04;;;;;;;39.67;18.70;;;;;;;;;;5040919;28;20061;-54
2021/09/17 01:32:30;;;;;;;39.92;19.63;;;;;;;;;;5033031;28;20052;-55
2021/09/17 01:34:58;;;;;;;39.20;18.70;;;;;;;;;;5039644;28;20041;-56
2021/09/17 01:37:24;;;;;;;37.23;18.77;;;;;;;;;;5004081;28;20042;-54
2021/09/17 01:39:52;;;;;;;36.13;17.48;;;;;;;;;;5022115;28;20046;-56
2021/09/17 01:42:19;;;;;;;38.17;18.53;;;;;;;;;;5019541;28;20037;-59
2021/09/17 01:44:45;;;;;;;39.75;18.42;;;;;;;;;;5021149;28;20034;-53
2021/09/17 01:47:12;;;;;;;38.10;18.42;;;;;;;;;;5018549;28;20046;-53
2021/09/17 01:49:38;;;;;;;42.00;19.85;;;;;;;;;;5021369;28;20069;-56
2021/09/17 01:52:05;;;;;;;38.65;19.00;;;;;;;;;;5011354;28;20045;-54
2021/09/17 01:54:32;;;;;;;43.50;19.85;;;;;;;;;;5003262;28;20045;-54
2021/09/17 01:57:00;;;;;;;47.30;20.70;;;;;;;;;;5024290;28;20104;-53
2021/09/17 01:59:26;;;;;;;40.97;19.67;;;;;;;;;;5034384;28;20041;-56
2021/09/17 02:01:52;;;;;;;42.97;18.80;;;;;;;;;;5008719;28;20053;-56
2021/09/17 02:04:19;;;;;;;44.72;20.23;;;;;;;;;;5012850;28;20050;-56
2021/09/17 02:06:45;;;;;;;43.25;18.85;;;;;;;;;;5021727;28;20033;-55
2021/09/17 02:09:12;;;;;;;42.20;18.92;;;;;;;;;;5036225;28;20043;-56
2021/09/17 02:11:38;;;;;;;40.58;19.67;;;;;;;;;;5023100;28;20117;-56
2021/09/17 02:14:08;;;;;;;43.70;19.75;;;;;;;;;;5019986;28;20052;-54
2021/09/17 02:16:35;;;;;;;40.30;18.90;;;;;;;;;;5014574;28;20049;-56
2021/09/17 02:19:01;;;;;;;43.08;19.42;;;;;;;;;;5009916;28;20037;-54
2021/09/17 02:21:28;;;;;;;43.10;21.13;;;;;;;;;;5023542;28;20042;-53
2021/09/17 02:23:56;;;;;;;40.13;18.60;;;;;;;;;;5016879;28;20054;-55
2021/09/17 02:26:22;;;;;;;40.03;19.98;;;;;;;;;;5006760;28;20046;-55
2021/09/17 02:28:49;;;;;;;47.10;21.42;;;;;;;;;;5013344;28;20057;-54
2021/09/17 02:31:17;;;;;;;41.58;20.60;;;;;;;;;;5003071;28;20034;-56
2021/09/17 02:33:43;;;;;;;45.23;20.60;;;;;;;;;;5018620;28;20050;-53
2021/09/17 02:36:10;;;;;;;47.95;20.38;;;;;;;;;;5006217;28;20038;-55
2021/09/17 02:38:37;;;;;;;43.67;21.05;;;;;;;;;;5021271;28;20030;-55
2021/09/17 02:41:04;;;;;;;44.75;20.75;;;;;;;;;;5026597;28;20042;-56
2021/09/17 02:43:30;;;;;;;42.28;19.42;;;;;;;;;;5042455;28;20043;-53
2021/09/17 02:45:58;;;;;;;42.70;20.40;;;;;;;;;;5023642;28;20042;-56
2021/09/17 02:48:26;;;;;;;46.72;20.13;;;;;;;;;;5021444;28;20042;-56
2021/09/17 02:50:53;;;;;;;44.97;19.88;;;;;;;;;;5028453;28;20053;-56
2021/09/17 02:53:20;;;;;;;47.22;22.25;;;;;;;;;;5042029;28;20037;-54
2021/09/17 02:55:47;;;;;;;49.22;21.35;;;;;;;;;;5038424;28;20041;-56
2021/09/17 02:58:13;;;;;;;41.80;21.13;;;;;;;;;;5041439;28;20042;-57
2021/09/17 03:00:41;;;;;;;45.28;22.02;;;;;;;;;;5037767;28;20041;-55
2021/09/17 03:03:08;;;;;;;46.92;21.23;;;;;;;;;;5041141;28;20045;-54
2021/09/17 03:05:36;;;;;;;45.72;22.00;;;;;;;;;;5035682;28;20046;-56
2021/09/17 03:08:04;;;;;;;52.20;22.70;;;;;;;;;;5015043;28;20053;-54
2021/09/17 03:10:30;;;;;;;50.70;22.98;;;;;;;;;;5019364;28;20056;-53
2021/09/17 03:12:59;;;;;;;50.25;22.10;;;;;;;;;;5023912;28;20041;-55
2021/09/17 03:15:27;;;;;;;53.10;23.02;;;;;;;;;;5024738;28;20112;-54
2021/09/17 03:17:54;;;;;;;52.08;23.20;;;;;;;;;;5023056;28;20050;-55
2021/09/17 03:20:20;;;;;;;48.47;22.10;;;;;;;;;;5026301;28;20052;-56
2021/09/17 03:22:48;;;;;;;54.08;23.40;;;;;;;;;;5020920;28;20065;-56
2021/09/17 03:25:15;;;;;;;57.88;24.30;;;;;;;;;;5025201;28;20033;-55
2021/09/17 03:27:42;;;;;;;56.85;23.98;;;;;;;;;;5060132;28;20034;-56
2021/09/17 03:30:10;;;;;;;57.70;23.52;;;;;;;;;;5068320;28;20040;-55
2021/09/17 03:32:37;;;;;;;49.03;22.77;;;;;;;;;;5071306;28;20117;-56
2021/09/17 03:35:04;;;;;;;56.20;24.00;;;;;;;;;;5046775;28;20100;-56
2021/09/17 03:37:30;;;;;;;55.45;22.73;;;;;;;;;;5043870;28;20064;-54
2021/09/17 03:39:58;;;;;;;55.38;23.48;;;;;;;;;;5047407;28;20090;-55
2021/09/17 03:42:27;;;;;;;57.33;24.23;;;;;;;;;;5054997;28;20039;-54
2021/09/17 03:44:54;;;;;;;56.28;24.83;;;;;;;;;;5047495;28;20281;-56
2021/09/17 03:47:20;;;;;;;52.58;23.42;;;;;;;;;;5065366;28;20166;-55
2021/09/17 03:49:47;;;;;;;50.70;24.27;;;;;;;;;;5068753;28;20033;-56
2021/09/17 03:52:13;;;;;;;51.10;24.52;;;;;;;;;;5063290;28;20028;-57
2021/09/17 03:54:40;;;;;;;52.45;23.85;;;;;;;;;;5050197;28;20040;-54
2021/09/17 03:57:08;;;;;;;55.47;24.27;;;;;;;;;;5046397;28;20048;-54
2021/09/17 03:59:34;;;;;;;53.33;24.30;;;;;;;;;;5061931;28;20056;-55
2021/09/17 04:02:01;;;;;;;54.75;24.92;;;;;;;;;;5078505;28;20138;-54
2021/09/17 04:04:27;;;;;;;59.55;25.95;;;;;;;;;;5063094;28;20044;-54
2021/09/17 04:06:54;;;;;;;54.28;24.67;;;;;;;;;;5066589;28;20129;-54
2021/09/17 04:09:20;;;;;;;58.80;25.60;;;;;;;;;;5058955;28;20130;-54
2021/09/17 04:11:47;;;;;;;57.53;24.45;;;;;;;;;;5063909;28;20044;-56
2021/09/17 04:14:15;;;;;;;55.25;23.75;;;;;;;;;;5043606;28;20051;-53
2021/09/17 04:16:41;;;;;;;57.72;25.15;;;;;;;;;;5047924;28;20041;-53
2021/09/17 04:19:07;;;;;;;59.80;25.58;;;;;;;;;;5042283;28;20048;-53
2021/09/17 04:21:34;;;;;;;56.33;25.10;;;;;;;;;;5047021;28;20060;-56
2021/09/17 04:24:01;;;;;;;56.53;24.55;;;;;;;;;;5042594;28;20052;-55
2021/09/17 04:26:27;;;;;;;55.83;24.40;;;;;;;;;;5064242;28;20033;-56
2021/09/17 04:28:54;;;;;;;49.78;24.30;;;;;;;;;;5043297;28;20048;-55
2021/09/17 04:31:21;;;;;;;53.88;23.42;;;;;;;;;;5062674;28;20040;-54
2021/09/17 04:33:48;;;;;;;55.33;24.93;;;;;;;;;;5061117;28;20037;-55
2021/09/17 04:36:14;;;;;;;59.42;26.30;;;;;;;;;;5064864;28;20121;-56
2021/09/17 04:38:41;;;;;;;60.22;25.35;;;;;;;;;;5064988;28;20036;-56
2021/09/17 04:41:07;;;;;;;59.40;25.67;;;;;;;;;;5061155;28;20040;-56
2021/09/17 04:43:34;;;;;;;60.65;25.70;;;;;;;;;;5065105;28;20041;-55
2021/09/17 04:46:01;;;;;;;55.83;25.45;;;;;;;;;;5044845;28;20037;-57
2021/09/17 04:48:29;;;;;;;59.08;25.95;;;;;;;;;;5045262;28;20051;-54
2021/09/17 04:50:55;;;;;;;58.75;25.05;;;;;;;;;;5042721;28;20040;-56
2021/09/17 04:53:24;;;;;;;56.90;25.70;;;;;;;;;;5047964;28;20045;-55
2021/09/17 04:55:51;;;;;;;57.83;26.40;;;;;;;;;;5042054;28;20052;-54
2021/09/17 04:58:17;;;;;;;59.95;26.20;;;;;;;;;;5046405;28;20056;-55
2021/09/17 05:00:44;;;;;;;53.75;24.35;;;;;;;;;;5060735;28;20101;-55
2021/09/17 05:03:10;;;;;;;58.17;25.33;;;;;;;;;;5045119;28;20044;-55
2021/09/17 05:05:38;;;;;;;62.55;25.75;;;;;;;;;;5044122;28;20072;-55
2021/09/17 05:08:05;;;;;;;57.27;25.90;;;;;;;;;;5046073;28;20036;-56
2021/09/17 05:10:31;;;;;;;62.15;26.17;;;;;;;;;;5063033;28;20044;-56
2021/09/17 05:12:58;;;;;;;57.20;25.73;;;;;;;;;;5066899;28;20032;-55
2021/09/17 05:15:28;;;;;;;57.75;24.85;;;;;;;;;;5061373;28;20040;-55
2021/09/17 05:17:54;;;;;;;55.78;24.30;;;;;;;;;;5046016;28;20047;-55
2021/09/17 05:20:21;;;;;;;59.90;25.30;;;;;;;;;;5048402;28;20056;-55
2021/09/17 05:22:49;;;;;;;60.40;26.48;;;;;;;;;;5062031;28;20052;-56
2021/09/17 05:25:15;;;;;;;56.17;25.60;;;;;;;;;;5063730;28;20037;-53
2021/09/17 05:27:42;;;;;;;59.00;23.77;;;;;;;;;;5062071;28;20093;-56
2021/09/17 05:30:09;;;;;;;57.92;24.40;;;;;;;;;;5067466;28;20047;-54
2021/09/17 05:32:35;;;;;;;53.67;24.27;;;;;;;;;;5060895;28;20036;-55
2021/09/17 05:35:03;;;;;;;54.17;23.90;;;;;;;;;;5079863;28;20044;-55
2021/09/17 05:37:29;;;;;;;52.72;24.25;;;;;;;;;;5059939;28;20052;-56
2021/09/17 05:39:57;;;;;;;51.42;24.20;;;;;;;;;;5063223;28;20041;-56
2021/09/17 05:42:24;;;;;;;49.40;23.42;;;;;;;;;;5077893;28;20052;-53
2021/09/17 05:45:12;;;;;;;46.55;22.95;;;;;;;;;;5063343;28;20032;-54
2021/09/17 05:47:38;;;;;;;47.10;23.88;;;;;;;;;;4997621;28;20048;-54
2021/09/17 05:50:05;;;;;;;47.38;22.98;;;;;;;;;;5068192;28;20043;-53
2021/09/17 05:52:32;;;;;;;51.67;23.25;;;;;;;;;;5077547;28;20411;-55
2021/09/17 05:55:00;;;;;;;43.90;21.90;;;;;;;;;;5064719;28;20056;-56
2021/09/17 05:57:28;;;;;;;48.47;22.75;;;;;;;;;;5058249;28;20036;-53
2021/09/17 05:59:54;;;;;;;47.05;22.60;;;;;;;;;;5063335;28;20048;-55
2021/09/17 06:02:20;;;;;;;47.28;21.92;;;;;;;;;;5051026;28;20060;-53
2021/09/17 06:04:51;;;;;;;48.03;23.35;;;;;;;;;;5063723;28;20040;-53
2021/09/17 06:07:22;;;;;;;44.53;21.65;;;;;;;;;;5058890;28;20069;-56
2021/09/17 06:09:48;;;;;;;48.10;22.67;;;;;;;;;;5061258;28;20056;-56
2021/09/17 06:12:16;;;;;;;49.97;24.27;;;;;;;;;;5066033;28;20055;-54
2021/09/17 06:14:43;;;;;;;47.97;22.37;;;;;;;;;;5057784;28;20090;-54
2021/09/17 06:17:09;;;;;;;46.22;22.58;;;;;;;;;;5064749;28;20045;-55
2021/09/17 06:19:36;;;;;;;48.42;20.88;;;;;;;;;;5061872;28;20043;-56
2021/09/17 06:22:02;;;;;;;48.53;21.80;;;;;;;;;;5048676;28;20033;-54
2021/09/17 06:24:30;;;;;;;44.78;22.02;;;;;;;;;;5042365;28;20151;-55
2021/09/17 06:26:56;;;;;;;44.63;21.10;;;;;;;;;;5061377;28;20036;-54
2021/09/17 06:29:24;;;;;;;42.55;21.65;;;;;;;;;;5045805;28;20048;-55
2021/09/17 06:31:51;;;;;;;42.50;21.03;;;;;;;;;;5062074;28;20040;-56
2021/09/17 06:34:23;;;;;;;45.67;21.38;;;;;;;;;;5061913;28;20304;-56
2021/09/17 06:36:50;;;;;;;46.35;20.90;;;;;;;;;;5048835;28;20044;-53
2021/09/17 06:39:21;;;;;;;42.47;21.17;;;;;;;;;;5023828;28;20033;-56
2021/09/17 06:41:48;;;;;;;44.40;20.95;;;;;;;;;;5055390;28;20056;-55
2021/09/17 06:44:14;;;;;;;43.35;21.00;;;;;;;;;;5037078;28;20040;-55
2021/09/17 06:46:42;;;;;;;39.72;20.42;;;;;;;;;;5058331;28;20052;-56
2021/09/17 06:49:09;;;;;;;41.97;21.30;;;;;;;;;;5059486;28;20041;-53
2021/09/17 06:51:35;;;;;;;42.33;20.50;;;;;;;;;;5075303;28;20282;-56
2021/09/17 06:54:02;;;;;;;45.55;20.10;;;;;;;;;;5059734;28;20037;-54
2021/09/17 06:56:31;;;;;;;43.75;21.63;;;;;;;;;;5060571;28;20055;-56
2021/09/17 06:59:02;;;;;;;42.33;21.70;;;;;;;;;;5053859;28;20029;-56
2021/09/17 07:01:28;;;;;;;42.75;21.17;;;;;;;;;;5061373;28;20024;-54
2021/09/17 07:03:57;;;;;;;43.97;21.40;;;;;;;;;;5065593;28;20055;-55
2021/09/17 07:06:24;;;;;;;42.85;21.23;;;;;;;;;;5059008;28;20264;-55
2021/09/17 07:08:52;;;;;;;42.88;21.15;;;;;;;;;;5060306;28;20044;-55
2021/09/17 07:11:18;;;;;;;46.63;20.30;;;;;;;;;;5059636;28;20109;-55
2021/09/17 07:13:45;;;;;;;44.13;21.02;;;;;;;;;;5064703;28;20041;-56
2021/09/17 07:16:11;;;;;;;43.90;21.33;;;;;;;;;;5057439;28;20118;-54
2021/09/17 07:18:38;;;;;;;39.92;19.77;;;;;;;;;;5044724;28;20122;-55
2021/09/17 07:21:05;;;;;;;38.70;19.20;;;;;;;;;;5054789;28;20052;-55
2021/09/17 07:23:33;;;;;;;45.23;19.23;;;;;;;;;;5043198;28;20093;-56
2021/09/17 07:26:00;;;;;;;40.20;19.10;;;;;;;;;;5019419;28;20037;-53
2021/09/17 07:28:26;;;;;;;45.38;20.23;;;;;;;;;;5035357;28;20096;-54
2021/09/17 07:30:53;;;;;;;40.95;19.00;;;;;;;;;;5054842;28;20047;-56
2021/09/17 07:33:20;;;;;;;40.90;19.05;;;;;;;;;;5049647;28;20044;-56
2021/09/17 07:35:47;;;;;;;41.58;18.25;;;;;;;;;;5058012;28;20041;-56
2021/09/17 07:38:15;;;;;;;34.75;17.65;;;;;;;;;;5057814;28;20048;-56
2021/09/17 07:40:41;;;;;;;33.33;18.37;;;;;;;;;;5044590;28;20037;-56
2021/09/17 07:43:08;;;;;;;39.22;18.50;;;;;;;;;;5047270;28;20137;-55
2021/09/17 07:45:34;;;;;;;32.55;16.45;;;;;;;;;;5064042;28;20051;-54
2021/09/17 07:48:02;;;;;;;35.08;17.77;;;;;;;;;;5043476;28;20033;-55
2021/09/17 07:50:29;;;;;;;37.00;18.00;;;;;;;;;;5042881;28;20051;-55
2021/09/17 07:52:56;;;;;;;38.00;18.88;;;;;;;;;;5058511;28;20041;-53
2021/09/17 07:55:24;;;;;;;40.53;18.42;;;;;;;;;;5042525;28;20102;-54
2021/09/17 07:57:50;;;;;;;36.95;18.52;;;;;;;;;;5041071;28;20048;-56
2021/09/17 08:00:17;;;;;;;33.70;18.02;;;;;;;;;;5047364;28;20036;-55
2021/09/17 08:02:44;;;;;;;29.48;15.43;;;;;;;;;;5043494;28;20290;-54
2021/09/17 08:05:14;;;;;;;33.13;17.42;;;;;;;;;;5066717;28;20068;-54
2021/09/17 08:07:41;;;;;;;32.03;17.20;;;;;;;;;;5042133;28;20029;-54
2021/09/17 08:10:07;;;;;;;32.38;17.13;;;;;;;;;;5047749;28;20029;-54
2021/09/17 08:12:35;;;;;;;31.98;17.45;;;;;;;;;;5034187;28;20122;-56
2021/09/17 08:15:03;;;;;;;32.33;17.50;;;;;;;;;;5054625;28;20044;-55
2021/09/17 08:17:30;;;;;;;32.03;16.50;;;;;;;;;;5063010;28;20285;-54
2021/09/17 08:19:56;;;;;;;34.33;16.35;;;;;;;;;;5064295;28;20033;-56
2021/09/17 08:22:23;;;;;;;31.65;15.93;;;;;;;;;;5063524;28;20041;-56
2021/09/17 08:24:50;;;;;;;29.73;15.18;;;;;;;;;;5051842;28;20050;-56
2021/09/17 08:27:17;;;;;;;32.23;15.93;;;;;;;;;;5043051;28;20041;-56
2021/09/17 08:29:45;;;;;;;29.40;15.85;;;;;;;;;;5024001;28;20045;-54
2021/09/17 08:32:11;;;;;;;32.87;16.37;;;;;;;;;;5039597;28;20041;-55
2021/09/17 08:34:39;;;;;;;31.08;14.85;;;;;;;;;;5038035;28;20037;-56
2021/09/17 08:37:08;;;;;;;30.87;15.10;;;;;;;;;;5038862;28;20033;-56
2021/09/17 08:39:37;;;;;;;32.65;15.90;;;;;;;;;;5043092;28;20049;-57
2021/09/17 08:42:04;;;;;;;29.83;15.15;;;;;;;;;;5060761;28;20040;-57
2021/09/17 08:44:31;;;;;;;36.70;14.68;;;;;;;;;;5050122;28;20068;-55
2021/09/17 08:46:59;;;;;;;29.00;13.65;;;;;;;;;;5042898;28;20038;-55
2021/09/17 08:49:26;;;;;;;25.95;14.30;;;;;;;;;;5040042;28;20037;-55
2021/09/17 08:51:52;;;;;;;28.85;13.80;;;;;;;;;;5042918;28;20041;-56
2021/09/17 08:54:20;;;;;;;30.13;14.38;;;;;;;;;;5045576;28;20048;-55
2021/09/17 08:56:46;;;;;;;27.50;14.80;;;;;;;;;;5063781;28;20051;-56
2021/09/17 08:59:13;;;;;;;29.42;14.52;;;;;;;;;;5056826;28;20141;-57
2021/09/17 09:01:39;;;;;;;29.25;13.98;;;;;;;;;;5043451;28;20041;-56
2021/09/17 09:04:09;;;;;;;30.90;14.90;;;;;;;;;;5043427;28;20037;-56
2021/09/17 09:06:37;;;;;;;31.98;16.23;;;;;;;;;;5041668;28;20095;-57
2021/09/17 09:09:04;;;;;;;28.90;15.65;;;;;;;;;;5041303;28;20081;-57
2021/09/17 09:11:31;;;;;;;27.20;14.95;;;;;;;;;;5051924;28;20044;-57
2021/09/17 09:14:08;;;;;;;26.85;14.70;;;;;;;;;;5063097;28;20043;-57
2021/09/17 09:16:35;;;;;;;27.60;14.75;;;;;;;;;;5058661;28;20040;-57
2021/09/17 09:19:27;;;;;;;33.45;15.32;;;;;;;;;;5061093;28;20040;-57
2021/09/17 09:21:54;;;;;;;29.60;15.20;;;;;;;;;;5039688;28;20053;-55
2021/09/17 09:24:22;;;;;;;31.33;15.27;;;;;;;;;;5042757;28;20041;-56
2021/09/17 09:27:03;;;;;;;29.13;15.50;;;;;;;;;;5053743;28;20093;-57
2021/09/17 09:29:30;;;;;;;32.20;15.43;;;;;;;;;;5062552;28;20033;-57
2021/09/17 09:31:57;;;;;;;29.63;14.25;;;;;;;;;;5046881;28;20056;-56
2021/09/17 09:34:44;;;;;;;37.22;15.88;;;;;;;;;;5043155;28;20041;-57
2021/09/17 09:37:12;;;;;;;34.47;16.27;;;;;;;;;;5037480;28;20052;-56
2021/09/17 09:39:49;;;;;;;32.30;15.57;;;;;;;;;;5042629;28;20025;-57
2021/09/17 09:42:18;;;;;;;32.10;15.80;;;;;;;;;;5039934;28;20045;-56
2021/09/17 09:45:05;;;;;;;32.85;15.45;;;;;;;;;;5042600;28;20042;-57
2021/09/17 09:47:32;;;;;;;30.50;14.70;;;;;;;;;;5056054;28;20094;-56
2021/09/17 09:50:05;;;;;;;34.88;15.25;;;;;;;;;;5062443;28;20072;-57
2021/09/17 09:52:32;;;;;;;27.55;14.75;;;;;;;;;;5057797;28;20129;-57
2021/09/17 09:54:58;;;;;;;28.73;15.68;;;;;;;;;;5062180;28;20044;-57
2021/09/17 09:57:25;;;;;;;34.55;16.60;;;;;;;;;;5057531;28;20111;-57
2021/09/17 09:59:52;;;;;;;28.92;14.88;;;;;;;;;;5063636;28;20115;-57
2021/09/17 10:02:23;;;;;;;31.42;15.45;;;;;;;;;;5056064;28;20037;-55
2021/09/17 10:04:49;;;;;;;37.85;16.58;;;;;;;;;;5060597;28;20147;-57
2021/09/17 10:07:18;;;;;;;36.45;17.70;;;;;;;;;;5046173;28;20048;-57
2021/09/17 10:09:44;;;;;;;;;;;;;;;;;;5062847;28;20033;-57
2021/09/17 10:12:11;;;;;;;29.40;15.80;;;;;;;;;;5055643;28;19954;-56
2021/09/17 10:14:39;;;;;;;30.75;16.40;;;;;;;;;;5062850;28;20048;-57
2021/09/17 10:17:06;;;;;;;32.80;16.23;;;;;;;;;;5058039;28;20052;-57
2021/09/17 10:19:33;;;;;;;38.30;17.02;;;;;;;;;;5042216;28;20060;-56
2021/09/17 10:22:00;;;;;;;31.15;16.73;;;;;;;;;;5039939;28;20049;-57
2021/09/17 10:24:34;;;;;;;31.15;15.88;;;;;;;;;;5055562;28;20037;-57
2021/09/17 10:27:02;;;;;;;31.45;16.60;;;;;;;;;;5060339;28;20056;-58
2021/09/17 10:29:32;;;;;;;29.17;15.37;;;;;;;;;;5042321;28;20052;-57
2021/09/17 10:32:00;;;;;;;32.40;16.45;;;;;;;;;;5043252;28;20329;-59
2021/09/17 10:34:35;;;;;;;31.63;16.20;;;;;;;;;;5040799;28;20129;-57
2021/09/17 10:37:05;;;;;;;35.78;16.83;;;;;;;;;;5042713;28;20049;-57
2021/09/17 10:39:31;;;;;;;39.03;16.88;;;;;;;;;;5040335;28;20128;-55
2021/09/17 10:42:19;;;;;;;36.35;17.10;;;;;;;;;;5055429;28;20036;-57
2021/09/17 10:45:05;;;;;;;30.60;15.05;;;;;;;;;;5037807;28;20041;-57
2021/09/17 10:47:56;;;;;;;33.30;16.42;;;;;;;;;;5040382;28;20037;-56
2021/09/17 10:50:37;;;;;;;28.23;15.82;;;;;;;;;;5055367;28;20045;-57
2021/09/17 10:53:04;;;;;;;35.95;15.77;;;;;;;;;;5063967;28;20051;-57
2021/09/17 10:55:52;;;;;;;40.15;18.60;;;;;;;;;;5040737;28;20095;-58
2021/09/17 10:58:19;;;;;;;34.92;17.05;;;;;;;;;;5038786;28;20055;-57
2021/09/17 11:00:52;;;;;;;37.00;17.90;;;;;;;;;;5039088;28;20041;-58
2021/09/17 11:03:33;;;;;;;36.90;18.20;;;;;;;;;;5035646;28;20051;-58
2021/09/17 11:06:17;;;;;;;43.15;17.98;;;;;;;;;;5036893;28;20072;-58
2021/09/17 11:08:46;;;;;;;38.40;16.80;;;;;;;;;;5040953;28;20045;-58
2021/09/17 11:11:22;;;;;;;44.38;16.80;;;;;;;;;;5046764;28;20072;-58
2021/09/17 11:13:49;;;;;;;40.50;19.73;;;;;;;;;;5061109;28;20045;-58
2021/09/17 11:16:16;;;;;;;39.85;19.00;;;;;;;;;;5051298;28;20106;-58
2021/09/17 11:18:50;;;;;;;45.97;21.98;;;;;;;;;;5062628;28;20044;-58
2021/09/17 11:21:17;;;;;;;36.92;19.60;;;;;;;;;;5043058;28;20060;-56
2021/09/17 11:23:48;;;;;;;39.65;19.85;;;;;;;;;;5041330;28;20053;-58
2021/09/17 11:26:19;;;;;;;49.83;21.40;;;;;;;;;;5055156;28;20127;-58
2021/09/17 11:28:57;;;;;;;41.22;19.13;;;;;;;;;;5064890;28;20053;-58
2021/09/17 11:31:25;;;;;;;37.95;18.92;;;;;;;;;;5056969;28;20077;-57
2021/09/17 11:33:55;;;;;;;38.22;18.35;;;;;;;;;;5047386;28;20037;-58
2021/09/17 11:36:33;;;;;;;40.40;19.52;;;;;;;;;;5061646;28;20053;-58
2021/09/17 11:39:10;;;;;;;39.50;19.10;;;;;;;;;;5065968;28;20033;-58
2021/09/17 11:41:38;;;;;;;35.03;16.63;;;;;;;;;;5062180;28;20040;-58
2021/09/17 11:44:06;;;;;;;34.00;16.48;;;;;;;;;;5068134;28;20036;-57
2021/09/17 11:46:34;;;;;;;31.20;14.27;;;;;;;;;;5055142;28;20040;-58
2021/09/17 11:49:00;;;;;;;28.77;14.90;;;;;;;;;;5047659;28;20352;-58
2021/09/17 11:51:27;;;;;;;26.60;12.93;;;;;;;;;;5048958;28;20048;-58
2021/09/17 11:53:57;;;;;;;32.50;14.30;;;;;;;;;;5065499;28;20061;-59
2021/09/17 11:56:23;;;;;;;26.05;13.43;;;;;;;;;;5066002;28;20089;-58
2021/09/17 11:58:54;;;;;;;26.10;12.63;;;;;;;;;;5069424;28;20044;-62
2021/09/17 12:01:22;;;;;;;33.72;16.38;;;;;;;;;;5062617;28;20053;-58
2021/09/17 12:03:53;;;;;;;31.08;15.48;;;;;;;;;;5068323;28;20092;-58
2021/09/17 12:06:20;;;;;;;31.90;15.40;;;;;;;;;;5063986;28;20038;-58
2021/09/17 12:08:46;;;;;;;29.80;13.52;;;;;;;;;;5068094;28;20037;-57
2021/09/17 12:11:18;;;;;;;23.25;11.30;;;;;;;;;;5067731;28;20040;-56
2021/09/17 12:13:46;;;;;;;21.63;10.32;;;;;;;;;;5063140;28;20048;-58
2021/09/17 12:16:14;;;;;;;22.23;10.93;;;;;;;;;;5085233;28;20086;-58
2021/09/17 12:18:40;;;;;;;20.90;9.55;;;;;;;;;;5058718;28;20049;-58
2021/09/17 12:21:06;;;;;;;19.88;9.45;;;;;;;;;;5080524;28;20043;-58
2021/09/17 12:23:34;;;;;;;17.92;8.88;;;;;;;;;;5077035;28;20048;-57
2021/09/17 12:26:06;;;;;;;21.35;9.80;;;;;;;;;;5083389;28;20041;-58
2021/09/17 12:28:33;;;;;;;18.75;8.85;;;;;;;;;;5061409;28;20059;-58
2021/09/17 12:30:59;;;;;;;19.95;9.15;;;;;;;;;;5065311;28;20036;-58
2021/09/17 12:33:29;;;;;;;34.72;7.60;;;;;;;;;;5080435;28;20142;-58
2021/09/17 12:35:56;;;;;;;20.92;7.90;;;;;;;;;;5066690;28;20051;-58
2021/09/17 12:38:24;;;;;;;16.80;7.32;;;;;;;;;;5063054;28;20040;-58
2021/09/17 12:40:51;;;;;;;;;;;;;;;;;;5062269;28;20064;-58
2021/09/17 12:43:25;;;;;;;19.60;7.38;;;;;;;;;;5047376;28;19981;-58
2021/09/17 12:45:56;;;;;;;28.13;8.88;;;;;;;;;;5064966;28;20032;-59
2021/09/17 12:48:25;;;;;;;20.52;8.45;;;;;;;;;;5058022;28;20090;-58
2021/09/17 12:50:53;;;;;;;19.08;7.68;;;;;;;;;;5064102;28;20047;-58
2021/09/17 12:53:21;;;;;;;17.90;8.23;;;;;;;;;;5045966;28;20133;-58
2021/09/17 12:55:48;;;;;;;17.55;8.02;;;;;;;;;;5067418;28;20061;-58
2021/09/17 12:58:16;;;;;;;19.77;8.15;;;;;;;;;;5063594;28;20048;-58
2021/09/17 13:00:43;;;;;;;23.02;8.52;;;;;;;;;;5083332;28;20144;-58
2021/09/17 13:03:11;;;;;;;23.38;9.55;;;;;;;;;;5065820;28;20040;-57
2021/09/17 13:05:38;;;;;;;17.33;7.80;;;;;;;;;;5062237;28;20095;-57
2021/09/17 13:08:06;;;;;;;20.80;9.05;;;;;;;;;;5080281;28;20037;-57
2021/09/17 13:10:34;;;;;;;17.85;8.52;;;;;;;;;;5079647;28;20043;-58
2021/09/17 13:13:00;;;;;;;19.42;8.93;;;;;;;;;;5064731;28;20039;-57
2021/09/17 13:15:27;;;;;;;22.02;9.27;;;;;;;;;;5059006;28;20033;-57
2021/09/17 13:17:54;;;;;;;18.15;8.65;;;;;;;;;;5064362;28;20044;-57
2021/09/17 13:20:21;;;;;;;17.27;8.38;;;;;;;;;;5062850;28;20048;-58
2021/09/17 13:22:47;;;;;;;19.52;7.68;;;;;;;;;;5082396;28;20037;-57
2021/09/17 13:25:17;;;;;;;15.63;7.38;;;;;;;;;;5062405;28;20055;-58
2021/09/17 13:27:44;;;;;;;20.33;7.60;;;;;;;;;;5063299;28;20041;-58
2021/09/17 13:30:11;;;;;;;17.20;7.95;;;;;;;;;;5076061;28;20083;-58
2021/09/17 13:32:38;;;;;;;20.10;8.45;;;;;;;;;;5065287;28;20048;-58
2021/09/17 13:35:05;;;;;;;24.45;8.82;;;;;;;;;;5057112;28;20045;-58
2021/09/17 13:37:31;;;;;;;20.77;8.20;;;;;;;;;;5043117;28;20037;-59
2021/09/17 13:39:59;;;;;;;22.40;9.55;;;;;;;;;;5040869;28;20041;-58
2021/09/17 13:42:27;;;;;;;23.17;8.15;;;;;;;;;;5057235;28;20043;-57
2021/09/17 13:45:00;;;;;;;28.95;10.75;;;;;;;;;;5052168;28;20049;-58
2021/09/17 13:47:26;;;;;;;25.75;10.13;;;;;;;;;;5054754;28;20045;-58
2021/09/17 13:49:52;;;;;;;26.65;11.55;;;;;;;;;;5041967;28;20048;-57
2021/09/17 13:52:19;;;;;;;23.38;11.13;;;;;;;;;;5037961;28;20033;-58
2021/09/17 13:54:45;;;;;;;27.73;11.27;;;;;;;;;;5041312;28;20060;-57
2021/09/17 13:57:12;;;;;;;28.50;11.00;;;;;;;;;;5039268;28;20041;-58
2021/09/17 13:59:40;;;;;;;25.35;11.38;;;;;;;;;;5042943;28;20045;-58
2021/09/17 14:02:06;;;;;;;25.42;10.38;;;;;;;;;;5037582;28;20057;-57
2021/09/17 14:04:34;;;;;;;25.67;11.73;;;;;;;;;;5044389;28;20037;-57
2021/09/17 14:07:00;;;;;;;26.27;11.00;;;;;;;;;;5049789;28;20052;-58
2021/09/17 14:09:27;;;;;;;24.10;10.60;;;;;;;;;;5062686;28;20047;-57
2021/09/17 14:11:53;;;;;;;27.88;11.13;;;;;;;;;;5053013;28;20045;-58
2021/09/17 14:14:20;;;;;;;27.85;11.88;;;;;;;;;;5041960;28;20045;-58
2021/09/17 14:16:48;;;;;;;25.00;10.70;;;;;;;;;;5045542;28;20048;-58
2021/09/17 14:19:15;;;;;;;24.55;10.60;;;;;;;;;;5062899;28;20048;-58
2021/09/17 14:21:42;;;;;;;24.27;10.75;;;;;;;;;;5056574;28;20040;-57
2021/09/17 14:24:10;;;;;;;25.73;11.57;;;;;;;;;;5062304;28;20048;-58